Time;durP1;ratioP1;P1;durP2;ratioP2;P2;SDS_P1;SDS_P2;PMS_P1;PMS_P2;Temp;Humidity;BMP_temperature;BMP_pressure;BME280_temperature;BME280_humidity;BME280_pressure;Samples;Min_cycle;Max_cycle;Signal;HPM_P1;HPM_P2
2022/08/22 00:01:31;;;;;;;5.55;4.85;;;14.60;99.60;;;;;;5104401;28;20224;-87
2022/08/22 00:04:09;;;;;;;6.75;5.20;;;14.50;99.80;;;;;;5115744;28;20203;-86
2022/08/22 00:06:47;;;;;;;6.55;5.00;;;14.50;99.80;;;;;;5112913;28;20196;-86
2022/08/22 00:09:28;;;;;;;5.78;4.32;;;14.50;99.80;;;;;;5107133;28;20204;-86
2022/08/22 00:12:04;;;;;;;7.47;5.10;;;14.50;99.50;;;;;;5116473;28;20227;-86
2022/08/22 00:14:39;;;;;;;7.45;4.97;;;14.60;99.50;;;;;;5116336;28;20192;-86
2022/08/22 00:17:32;;;;;;;6.50;5.10;;;14.50;99.30;;;;;;5115760;28;20206;-86
2022/08/22 00:20:11;;;;;;;6.15;5.10;;;14.50;99.40;;;;;;5116263;28;20214;-85
2022/08/22 00:22:46;;;;;;;6.30;5.00;;;14.50;99.50;;;;;;5115995;28;20204;-86
2022/08/22 00:25:34;;;;;;;6.45;4.85;;;14.40;99.30;;;;;;5113500;28;20294;-85
2022/08/22 00:28:07;;;;;;;5.40;4.90;;;14.40;99.40;;;;;;5113646;28;20288;-86
2022/08/22 00:30:42;;;;;;;5.57;5.03;;;14.40;99.40;;;;;;5117655;28;20227;-86
2022/08/22 00:33:21;;;;;;;8.90;5.10;;;14.40;99.80;;;;;;5115780;28;20195;-86
2022/08/22 00:35:53;;;;;;;5.95;5.00;;;14.40;99.60;;;;;;5115431;28;20593;-85
2022/08/22 00:38:25;;;;;;;6.15;5.30;;;14.40;99.40;;;;;;5103026;28;20196;-86
2022/08/22 00:41:01;;;;;;;6.30;5.10;;;14.30;99.30;;;;;;5114681;28;20226;-87
2022/08/22 00:43:54;;;;;;;5.05;4.55;;;14.30;99.30;;;;;;5115282;28;20210;-86
2022/08/22 00:46:46;;;;;;;8.80;4.57;;;14.40;99.20;;;;;;5109841;28;20196;-86
2022/08/22 00:49:32;;;;;;;6.70;4.70;;;14.40;99.20;;;;;;5109020;28;20196;-86
2022/08/22 00:52:30;;;;;;;6.00;4.60;;;14.40;99.30;;;;;;5114971;28;20214;-86
2022/08/22 00:55:35;;;;;;;6.03;5.00;;;14.40;99.30;;;;;;5115744;28;20294;-86
2022/08/22 00:58:37;;;;;;;5.25;4.75;;;14.40;99.40;;;;;;5109232;28;20200;-86
2022/08/22 01:04:02;;;;;;;7.72;4.93;;;14.40;99.50;;;;;;5114804;28;20186;-86
2022/08/22 01:06:43;;;;;;;5.55;4.75;;;14.30;99.40;;;;;;5111703;28;20299;-86
2022/08/22 01:09:23;;;;;;;6.75;5.07;;;14.30;99.60;;;;;;5111335;28;20576;-85
2022/08/22 01:12:11;;;;;;;5.40;4.90;;;14.40;99.70;;;;;;5105162;28;20195;-86
2022/08/22 01:14:47;;;;;;;6.30;4.75;;;14.40;99.70;;;;;;5108611;28;20248;-86
2022/08/22 01:17:59;;;;;;;8.10;5.45;;;14.40;99.70;;;;;;5108345;28;20202;-86
2022/08/22 01:21:00;;;;;;;8.48;5.18;;;14.40;99.60;;;;;;5112764;28;20210;-87
2022/08/22 01:24:25;;;;;;;9.50;5.60;;;14.30;99.70;;;;;;5108345;28;20222;-86
2022/08/22 01:27:27;;;;;;;5.60;5.10;;;14.30;99.80;;;;;;5104944;28;20257;-86
2022/08/22 01:30:15;;;;;;;6.55;5.28;;;14.30;99.90;;;;;;5109883;28;20286;-86
2022/08/22 01:33:30;;;;;;;5.72;4.57;;;14.20;99.90;;;;;;5113912;28;20276;-87
2022/08/22 01:36:18;;;;;;;5.70;4.75;;;14.30;99.90;;;;;;5112320;28;20195;-86
2022/08/22 01:39:19;;;;;;;5.13;4.63;;;14.30;99.90;;;;;;5110602;28;20675;-86
2022/08/22 01:42:23;;;;;;;5.25;4.75;;;14.20;99.80;;;;;;5108451;28;20218;-86
2022/08/22 01:45:10;;;;;;;5.60;4.75;;;14.30;99.90;;;;;;5101081;28;20216;-86
2022/08/22 01:47:42;;;;;;;6.55;5.18;;;14.20;99.90;;;;;;5098870;28;20215;-86
2022/08/22 01:50:18;;;;;;;5.28;4.78;;;14.20;99.90;;;;;;5102521;28;20583;-86
2022/08/22 01:52:59;;;;;;;7.72;4.88;;;14.20;99.90;;;;;;5112621;28;20208;-86
2022/08/22 01:55:32;;;;;;;5.45;4.95;;;14.10;99.90;;;;;;5113553;28;20199;-86
2022/08/22 01:58:02;;;;;;;5.60;5.07;;;14.10;99.90;;;;;;5112297;28;20658;-87
2022/08/22 02:00:48;;;;;;;12.10;5.78;;;14.10;99.90;;;;;;5113234;28;20225;-86
2022/08/22 02:03:24;;;;;;;5.25;4.75;;;14.10;99.90;;;;;;5101547;28;20223;-86
2022/08/22 02:05:58;;;;;;;5.80;5.20;;;14.10;99.90;;;;;;5111358;28;20566;-86
2022/08/22 02:08:43;;;;;;;6.38;4.97;;;14.10;99.90;;;;;;5112580;28;20202;-86
2022/08/22 02:11:13;;;;;;;7.03;4.55;;;14.00;99.90;;;;;;5096059;28;20202;-86
2022/08/22 02:13:51;;;;;;;6.60;4.15;;;14.00;99.90;;;;;;5104065;28;20201;-87
2022/08/22 02:16:32;;;;;;;5.60;4.78;;;14.00;99.90;;;;;;5111147;28;20194;-86
2022/08/22 02:19:18;;;;;;;7.03;4.45;;;14.00;99.90;;;;;;5100779;28;20204;-86
2022/08/22 02:21:49;;;;;;;6.38;5.00;;;14.00;99.90;;;;;;5111836;28;20234;-86
2022/08/22 02:24:24;;;;;;;6.72;5.32;;;13.90;99.90;;;;;;5112337;28;20207;-86
2022/08/22 02:27:08;;;;;;;5.80;4.43;;;14.10;99.90;;;;;;5112088;28;20237;-86
2022/08/22 02:29:42;;;;;;;6.90;4.85;;;14.00;99.90;;;;;;5112659;28;20210;-86
2022/08/22 02:32:19;;;;;;;5.68;4.80;;;14.00;99.90;;;;;;5113295;28;20214;-86
2022/08/22 02:34:58;;;;;;;8.15;5.00;;;13.90;99.90;;;;;;5112260;28;20203;-86
2022/08/22 02:37:35;;;;;;;7.78;4.88;;;13.80;99.90;;;;;;5102064;28;20571;-86
2022/08/22 02:40:12;;;;;;;4.78;4.35;;;13.80;99.90;;;;;;5110663;28;20200;-86
2022/08/22 02:42:43;;;;;;;5.43;4.80;;;13.70;99.90;;;;;;5103312;28;20750;-86
2022/08/22 02:45:19;;;;;;;5.20;4.70;;;13.70;99.90;;;;;;5113170;28;20597;-86
2022/08/22 02:47:55;;;;;;;5.90;4.80;;;13.60;99.90;;;;;;5111467;28;20196;-87
2022/08/22 02:50:30;;;;;;;6.97;4.57;;;13.60;99.90;;;;;;5110120;28;20206;-86
2022/08/22 02:53:05;;;;;;;5.30;4.57;;;13.60;99.90;;;;;;5112950;28;20210;-86
2022/08/22 02:55:47;;;;;;;5.85;5.07;;;13.60;99.90;;;;;;5111781;28;20655;-86
2022/08/22 02:58:23;;;;;;;5.55;4.93;;;13.60;99.90;;;;;;5106088;28;20204;-86
2022/08/22 03:01:16;;;;;;;5.15;4.65;;;13.60;99.90;;;;;;5110609;28;20576;-86
2022/08/22 03:03:46;;;;;;;5.53;5.03;;;13.70;99.90;;;;;;5106765;28;20218;-86
2022/08/22 03:06:31;;;;;;;6.32;5.00;;;13.80;99.90;;;;;;5111177;28;20204;-86
2022/08/22 03:09:07;;;;;;;5.40;4.70;;;13.80;99.90;;;;;;5111648;28;20203;-86
2022/08/22 03:11:40;;;;;;;5.00;4.55;;;13.80;99.90;;;;;;5101971;28;20266;-87
2022/08/22 03:14:12;;;;;;;5.88;4.80;;;13.80;99.90;;;;;;5111391;28;20647;-86
2022/08/22 03:16:49;;;;;;;6.68;4.90;;;13.90;99.90;;;;;;5101771;28;20192;-86
2022/08/22 03:19:29;;;;;;;6.03;4.55;;;14.00;99.90;;;;;;5112815;28;20217;-86
2022/08/22 03:22:01;;;;;;;5.00;4.43;;;14.10;99.90;;;;;;5107853;28;20220;-86
2022/08/22 03:24:34;;;;;;;5.78;5.18;;;14.00;99.70;;;;;;5109696;28;20208;-86
2022/08/22 03:27:16;;;;;;;7.80;4.82;;;14.00;99.80;;;;;;5112510;28;20572;-86
2022/08/22 03:29:48;;;;;;;5.82;4.82;;;13.80;99.90;;;;;;5112768;28;20196;-86
2022/08/22 03:32:18;;;;;;;4.95;4.45;;;13.70;99.90;;;;;;5113051;28;20255;-86
2022/08/22 03:34:57;;;;;;;5.82;5.20;;;13.70;99.90;;;;;;5112580;28;20663;-86
2022/08/22 03:37:32;;;;;;;7.55;5.25;;;13.80;99.90;;;;;;5113768;28;20248;-86
2022/08/22 03:40:03;;;;;;;6.13;5.05;;;13.80;99.90;;;;;;5117058;28;20574;-86
2022/08/22 03:42:55;;;;;;;5.47;4.82;;;13.80;99.90;;;;;;5106406;28;20786;-86
2022/08/22 03:45:58;;;;;;;7.05;4.80;;;13.70;99.90;;;;;;5106219;28;20272;-86
2022/08/22 03:49:07;;;;;;;5.28;4.75;;;13.70;99.90;;;;;;5052584;28;20206;-86
2022/08/22 03:51:49;;;;;;;7.07;4.80;;;13.60;99.90;;;;;;4971401;28;20652;-86
2022/08/22 03:55:06;;;;;;;5.13;4.53;;;13.70;99.90;;;;;;4975572;28;20201;-86
2022/08/22 03:58:15;;;;;;;5.88;4.57;;;13.70;99.90;;;;;;4915193;29;20201;-86
2022/08/22 04:01:08;;;;;;;6.13;4.88;;;13.60;99.90;;;;;;4906089;29;20207;-86
2022/08/22 04:04:10;;;;;;;5.22;4.72;;;13.50;99.90;;;;;;4916653;29;20639;-86
2022/08/22 04:07:18;;;;;;;8.75;5.03;;;13.50;99.90;;;;;;4898080;29;20214;-86
2022/08/22 04:10:02;;;;;;;5.57;4.82;;;13.50;99.90;;;;;;4899985;29;20234;-86
2022/08/22 04:13:11;;;;;;;5.72;5.13;;;13.60;99.90;;;;;;4898608;29;20207;-86
2022/08/22 04:16:12;;;;;;;7.07;5.10;;;13.60;99.90;;;;;;4901363;29;20286;-86
2022/08/22 04:19:00;;;;;;;5.30;4.80;;;13.60;99.90;;;;;;4893780;29;20218;-86
2022/08/22 04:21:46;;;;;;;5.38;4.78;;;13.50;99.90;;;;;;4901448;28;20331;-85
2022/08/22 04:24:39;;;;;;;5.38;4.82;;;13.50;99.90;;;;;;4979440;28;20216;-86
2022/08/22 04:27:16;;;;;;;6.13;4.90;;;13.50;99.90;;;;;;4948988;28;20205;-86
2022/08/22 04:29:54;;;;;;;5.63;4.88;;;13.50;99.90;;;;;;4995925;28;20199;-86
2022/08/22 04:32:28;;;;;;;5.75;5.18;;;13.50;99.90;;;;;;4995509;28;20207;-85
2022/08/22 04:35:05;;;;;;;7.03;5.47;;;13.40;99.90;;;;;;5025162;28;20202;-86
2022/08/22 04:37:39;;;;;;;5.60;5.10;;;13.40;99.90;;;;;;5019212;28;20203;-85
2022/08/22 04:40:18;;;;;;;7.13;5.05;;;13.40;99.90;;;;;;5007216;28;20209;-86
2022/08/22 04:42:50;;;;;;;6.03;4.82;;;13.40;99.90;;;;;;5037525;28;20218;-86
2022/08/22 04:45:31;;;;;;;6.18;5.13;;;13.30;99.90;;;;;;5047215;28;20254;-86
2022/08/22 04:48:09;;;;;;;5.60;4.65;;;13.30;99.90;;;;;;5054481;28;20198;-86
2022/08/22 04:50:42;;;;;;;6.18;5.50;;;13.40;99.90;;;;;;5063814;28;20201;-86
2022/08/22 04:53:23;;;;;;;6.30;5.00;;;13.40;99.90;;;;;;5061765;28;20202;-86
2022/08/22 04:56:02;;;;;;;6.43;5.22;;;13.40;99.90;;;;;;5063290;28;20193;-86
2022/08/22 04:58:43;;;;;;;6.88;5.40;;;13.50;99.90;;;;;;5053268;28;20194;-86
2022/08/22 05:01:19;;;;;;;6.97;5.30;;;13.50;99.90;;;;;;5043683;28;20206;-86
2022/08/22 05:03:53;;;;;;;7.25;5.47;;;13.60;99.90;;;;;;5070740;28;20263;-86
2022/08/22 05:06:25;;;;;;;6.88;5.25;;;13.60;99.90;;;;;;5111456;28;20222;-86
2022/08/22 05:08:53;;;;;;;7.50;5.53;;;13.60;99.90;;;;;;5109932;28;20196;-86
2022/08/22 05:11:23;;;;;;;6.25;5.32;;;13.70;99.90;;;;;;5101388;28;20276;-86
2022/08/22 05:13:54;;;;;;;5.95;5.07;;;13.70;99.90;;;;;;5114490;28;20670;-86
2022/08/22 05:16:28;;;;;;;5.53;4.93;;;13.80;99.90;;;;;;5100645;28;20196;-86
2022/08/22 05:19:00;;;;;;;7.80;5.30;;;13.90;99.90;;;;;;5101695;28;20208;-85
2022/08/22 05:21:32;;;;;;;8.82;5.40;;;13.90;99.90;;;;;;5113688;28;20200;-86
2022/08/22 05:24:06;;;;;;;6.50;5.60;;;13.90;99.90;;;;;;5114273;28;20300;-86
2022/08/22 05:26:38;;;;;;;7.20;5.15;;;14.00;99.90;;;;;;5101906;28;20202;-86
2022/08/22 05:29:08;;;;;;;6.68;4.90;;;14.00;99.90;;;;;;5104514;28;20236;-86
2022/08/22 05:31:40;;;;;;;6.68;5.25;;;14.10;99.90;;;;;;5114100;28;20643;-87
2022/08/22 05:34:14;;;;;;;7.65;5.10;;;14.30;99.90;;;;;;5114516;28;20207;-86
2022/08/22 05:36:45;;;;;;;6.63;5.68;;;14.30;99.90;;;;;;5101796;28;20198;-86
2022/08/22 05:39:16;;;;;;;5.88;5.28;;;14.50;99.90;;;;;;5113978;28;20202;-86
2022/08/22 05:41:43;;;;;;;5.03;4.53;;;14.60;99.80;;;;;;5111970;28;20207;-86
2022/08/22 05:44:19;;;;;;;7.10;4.90;;;14.70;99.60;;;;;;5113710;28;20277;-86
2022/08/22 05:46:51;;;;;;;7.30;4.90;;;14.80;99.50;;;;;;5111984;28;20654;-86
2022/08/22 05:49:22;;;;;;;5.90;4.95;;;14.80;99.40;;;;;;5105306;28;20199;-87
2022/08/22 05:51:58;;;;;;;5.70;5.07;;;14.90;99.50;;;;;;5112587;28;20261;-86
2022/08/22 05:54:32;;;;;;;5.28;4.78;;;15.10;99.40;;;;;;5093236;28;20192;-86
2022/08/22 05:57:08;;;;;;;7.85;5.60;;;15.20;99.10;;;;;;5101501;28;20222;-86
2022/08/22 05:59:40;;;;;;;5.70;4.90;;;15.20;99.20;;;;;;5104193;28;20695;-86
2022/08/22 06:02:11;;;;;;;6.18;5.18;;;15.30;99.10;;;;;;5102809;28;20659;-86
2022/08/22 06:04:48;;;;;;;6.43;5.68;;;15.40;99.10;;;;;;5098393;28;20203;-86
2022/08/22 06:07:20;;;;;;;9.77;5.97;;;15.50;98.90;;;;;;5112390;28;20200;-86
2022/08/22 06:10:05;;;;;;;8.25;5.90;;;15.50;98.80;;;;;;5097784;28;20196;-86
2022/08/22 06:12:37;;;;;;;7.72;5.85;;;15.70;98.60;;;;;;5107999;28;20199;-86
2022/08/22 06:15:11;;;;;;;6.40;5.72;;;15.80;98.20;;;;;;5093535;28;20200;-86
2022/08/22 06:17:44;;;;;;;7.57;5.85;;;15.90;97.80;;;;;;5112122;28;20200;-86
2022/08/22 06:20:17;;;;;;;7.70;5.95;;;16.10;97.60;;;;;;5105473;28;20254;-86
2022/08/22 06:22:51;;;;;;;9.70;6.13;;;16.30;97.20;;;;;;5111924;28;20207;-86
2022/08/22 06:25:21;;;;;;;6.60;6.00;;;16.50;96.40;;;;;;5115086;28;20200;-86
2022/08/22 06:27:49;;;;;;;9.77;6.40;;;16.80;95.90;;;;;;5114449;28;20209;-87
2022/08/22 06:30:18;;;;;;;10.88;6.50;;;16.90;95.00;;;;;;5114756;28;20215;-86
2022/08/22 06:32:50;;;;;;;6.00;5.40;;;17.00;94.60;;;;;;5113300;28;20199;-87
2022/08/22 06:35:24;;;;;;;8.63;6.22;;;17.10;94.60;;;;;;5113513;28;20294;-86
2022/08/22 06:37:56;;;;;;;8.13;6.53;;;17.10;94.20;;;;;;5111964;28;20206;-87
2022/08/22 06:40:25;;;;;;;9.20;6.40;;;17.20;94.40;;;;;;5111232;28;20188;-86
2022/08/22 06:42:53;;;;;;;9.63;6.05;;;17.20;94.40;;;;;;5107397;28;20216;-87
2022/08/22 06:45:25;;;;;;;7.40;6.63;;;17.30;94.50;;;;;;5112642;28;20212;-87
2022/08/22 06:47:55;;;;;;;8.20;6.65;;;17.40;94.30;;;;;;5110946;28;20204;-86
2022/08/22 06:50:30;;;;;;;7.40;6.63;;;17.50;93.90;;;;;;5111408;28;20677;-87
2022/08/22 06:53:01;;;;;;;10.07;7.13;;;17.70;93.70;;;;;;5112487;28;20292;-87
2022/08/22 06:55:30;;;;;;;8.15;7.20;;;17.70;94.10;;;;;;5106822;28;20219;-86
2022/08/22 06:58:02;;;;;;;10.30;8.05;;;17.70;94.00;;;;;;5112807;28;20677;-87
2022/08/22 07:00:31;;;;;;;12.82;8.98;;;17.70;93.90;;;;;;5113067;28;20204;-86
2022/08/22 07:03:03;;;;;;;9.77;8.18;;;17.70;93.40;;;;;;5113275;28;20220;-86
2022/08/22 07:05:37;;;;;;;10.00;7.28;;;17.70;93.30;;;;;;5107614;28;20200;-87
2022/08/22 07:08:07;;;;;;;8.48;7.55;;;17.90;93.50;;;;;;5114054;28;20200;-87
2022/08/22 07:10:34;;;;;;;10.23;7.32;;;18.20;92.20;;;;;;5100470;28;20230;-87
2022/08/22 07:13:07;;;;;;;8.57;7.70;;;18.50;92.30;;;;;;5113484;28;20212;-84
2022/08/22 07:15:36;;;;;;;9.57;8.07;;;18.70;91.50;;;;;;5119513;28;20200;-84
2022/08/22 07:18:08;;;;;;;9.40;8.40;;;19.00;91.00;;;;;;5117060;28;20203;-84
2022/08/22 07:20:41;;;;;;;10.55;8.77;;;19.40;87.60;;;;;;5118627;28;20196;-85
2022/08/22 07:23:11;;;;;;;9.55;8.35;;;19.60;85.60;;;;;;5104627;28;20223;-85
2022/08/22 07:25:51;;;;;;;11.77;8.20;;;19.70;85.70;;;;;;5117244;28;20199;-85
2022/08/22 07:28:27;;;;;;;11.82;8.93;;;19.90;88.00;;;;;;5105641;28;20215;-85
2022/08/22 07:30:57;;;;;;;9.98;8.98;;;20.00;87.80;;;;;;5117948;28;20188;-85
2022/08/22 07:33:39;;;;;;;8.73;7.80;;;20.00;84.50;;;;;;5107547;28;20682;-84
2022/08/22 07:36:24;;;;;;;10.10;8.15;;;20.10;84.80;;;;;;5122392;28;20201;-84
2022/08/22 07:39:18;;;;;;;10.23;7.32;;;20.30;84.00;;;;;;5108542;28;20286;-84
2022/08/22 07:42:01;;;;;;;10.23;7.22;;;20.40;83.10;;;;;;5101635;28;20197;-84
2022/08/22 07:44:33;;;;;;;7.65;6.95;;;20.30;85.20;;;;;;5112339;28;20694;-84
2022/08/22 07:47:07;;;;;;;10.73;7.13;;;20.60;80.80;;;;;;5114320;28;20197;-84
2022/08/22 07:49:38;;;;;;;7.78;6.97;;;20.60;77.90;;;;;;5111702;28;20198;-84
2022/08/22 07:52:10;;;;;;;8.02;7.20;;;20.40;79.90;;;;;;5116270;28;20572;-85
2022/08/22 07:54:41;;;;;;;7.88;6.70;;;20.30;81.00;;;;;;5116490;28;20208;-85
2022/08/22 07:57:20;;;;;;;8.25;6.47;;;20.30;81.00;;;;;;5113171;28;20198;-85
2022/08/22 07:59:51;;;;;;;6.95;6.07;;;20.40;81.10;;;;;;5116599;28;20207;-85
2022/08/22 08:02:21;;;;;;;8.45;6.40;;;20.40;81.10;;;;;;5115821;28;20238;-85
2022/08/22 08:04:51;;;;;;;11.43;7.10;;;20.40;81.10;;;;;;5116962;28;20231;-84
2022/08/22 08:07:22;;;;;;;8.43;5.82;;;20.40;75.60;;;;;;5106739;28;20207;-85
2022/08/22 08:09:52;;;;;;;7.05;6.00;;;20.30;79.00;;;;;;5116503;28;20207;-85
2022/08/22 08:12:25;;;;;;;6.75;5.45;;;20.40;77.70;;;;;;5116176;27;20552;-85
2022/08/22 08:14:54;;;;;;;9.20;6.68;;;20.50;79.10;;;;;;5111826;28;20220;-85
2022/08/22 08:17:25;;;;;;;8.80;5.88;;;20.60;75.80;;;;;;5116397;28;20249;-85
2022/08/22 08:19:53;;;;;;;26.27;23.48;;;20.50;73.30;;;;;;5103541;28;20204;-85
2022/08/22 08:22:25;;;;;;;8.60;7.60;;;20.70;74.70;;;;;;5111226;27;20227;-85
2022/08/22 08:24:55;;;;;;;10.57;9.27;;;20.80;70.10;;;;;;5105713;28;20223;-85
2022/08/22 08:30:14;;;;;;;9.38;7.35;;;20.90;57.50;;;;;;5107982;28;20203;-85
2022/08/22 08:32:42;;;;;;;9.10;5.75;;;20.90;59.70;;;;;;5095857;28;20200;-85
2022/08/22 08:35:17;;;;;;;7.85;4.50;;;21.00;60.40;;;;;;5096105;28;20202;-85
2022/08/22 08:37:48;;;;;;;7.93;4.60;;;21.10;62.30;;;;;;5114899;28;20276;-85
2022/08/22 08:40:37;;;;;;;8.27;5.05;;;21.10;56.90;;;;;;5112408;28;20200;-85
2022/08/22 08:43:27;;;;;;;8.20;4.88;;;21.20;57.00;;;;;;5112387;28;20239;-85
2022/08/22 08:46:34;;;;;;;6.60;4.70;;;21.30;53.50;;;;;;5108801;28;20195;-85
2022/08/22 08:49:39;;;;;;;4.55;3.72;;;21.20;40.20;;;;;;5109645;28;20275;-85
2022/08/22 08:52:35;;;;;;;3.85;2.92;;;21.30;40.60;;;;;;5102427;28;20233;-84
2022/08/22 08:55:18;;;;;;;6.55;3.38;;;21.40;39.30;;;;;;5040115;28;20304;-85
2022/08/22 08:58:33;;;;;;;9.27;3.28;;;21.40;33.20;;;;;;5049868;28;20285;-85
2022/08/22 09:01:16;;;;;;;3.35;2.92;;;21.40;31.40;;;;;;4959116;28;20223;-85
2022/08/22 09:04:19;;;;;;;6.53;3.45;;;21.70;33.50;;;;;;4960528;28;20220;-85
2022/08/22 09:07:08;;;;;;;6.03;3.75;;;21.90;34.20;;;;;;4915772;29;20297;-85
2022/08/22 09:09:53;;;;;;;7.55;3.72;;;22.20;31.60;;;;;;4923536;29;20206;-82
2022/08/22 09:12:36;;;;;;;8.35;3.17;;;22.40;35.20;;;;;;4926529;29;20225;-81
2022/08/22 09:15:20;;;;;;;5.95;3.35;;;23.90;30.80;;;;;;4928005;29;20220;-82
2022/08/22 09:18:12;;;;;;;7.40;3.60;;;25.90;21.50;;;;;;4923093;29;20677;-83
2022/08/22 09:21:01;;;;;;;6.70;3.47;;;27.50;19.20;;;;;;4916305;29;20206;-83
2022/08/22 09:24:06;;;;;;;6.72;3.70;;;28.40;15.80;;;;;;4920718;29;20309;-84
2022/08/22 09:26:48;;;;;;;7.53;3.13;;;29.10;14.30;;;;;;4917502;29;20701;-84
2022/08/22 09:29:43;;;;;;;5.43;3.72;;;31.00;11.00;;;;;;4924419;29;20262;-84
2022/08/22 09:32:20;;;;;;;14.50;12.35;;;31.20;10.70;;;;;;4959481;28;20331;-84
2022/08/22 09:35:00;;;;;;;5.47;3.53;;;30.90;10.30;;;;;;5034422;28;20264;-84
2022/08/22 09:37:35;;;;;;;4.63;3.47;;;31.20;10.20;;;;;;5072587;28;20246;-84
2022/08/22 09:40:08;;;;;;;4.05;3.20;;;31.30;7.20;;;;;;5066010;28;20209;-84
2022/08/22 09:43:10;;;;;;;7.95;3.72;;;30.50;8.70;;;;;;5088902;28;20239;-84
2022/08/22 09:45:56;;;;;;;4.25;3.30;;;30.30;9.00;;;;;;5115333;28;20219;-84
2022/08/22 09:48:47;;;;;;;4.40;3.40;;;31.80;8.20;;;;;;5109781;28;20244;-84
2022/08/22 09:51:33;;;;;;;4.80;3.30;;;31.60;6.50;;;;;;5110183;28;20287;-84
2022/08/22 09:54:13;;;;;;;4.47;3.10;;;31.00;7.30;;;;;;5112186;28;20211;-84
2022/08/22 09:56:52;;;;;;;4.50;3.55;;;32.30;6.00;;;;;;5121069;28;20203;-84
2022/08/22 09:59:24;;;;;;;5.05;3.60;;;32.60;6.50;;;;;;5113585;28;20199;-84
2022/08/22 10:01:57;;;;;;;3.35;2.97;;;32.20;6.10;;;;;;5123133;28;20234;-84
2022/08/22 10:04:45;;;;;;;4.40;3.20;;;32.80;4.80;;;;;;5123879;28;20227;-84
2022/08/22 10:07:42;;;;;;;4.95;3.55;;;33.10;2.80;;;;;;5121620;28;20213;-84
2022/08/22 10:10:53;;;;;;;3.88;3.25;;;31.90;5.50;;;;;;5117912;28;20196;-84
2022/08/22 10:13:36;;;;;;;4.78;3.50;;;31.60;6.80;;;;;;5113402;28;20611;-84
2022/08/22 10:16:17;;;;;;;17.10;15.65;;;31.50;6.10;;;;;;5124074;28;20223;-84
2022/08/22 10:18:54;;;;;;;6.05;4.40;;;31.20;7.60;;;;;;5121757;28;20195;-84
2022/08/22 10:21:32;;;;;;;7.07;6.47;;;30.90;8.40;;;;;;5120247;28;20187;-84
2022/08/22 10:24:05;;;;;;;7.18;3.55;;;30.90;8.80;;;;;;5123149;28;20218;-84
2022/08/22 10:26:39;;;;;;;5.85;3.80;;;30.50;8.80;;;;;;5122113;28;20199;-84
2022/08/22 10:29:39;;;;;;;4.75;3.35;;;30.40;9.50;;;;;;5123243;28;20214;-84
2022/08/22 10:32:19;;;;;;;6.13;3.55;;;30.60;7.90;;;;;;5112775;28;20207;-84
2022/08/22 10:35:18;;;;;;;4.68;3.40;;;30.50;9.50;;;;;;5122955;28;20191;-84
2022/08/22 10:38:00;;;;;;;5.05;3.47;;;30.40;9.80;;;;;;5117702;28;20278;-84
2022/08/22 10:40:32;;;;;;;6.65;3.50;;;31.50;7.10;;;;;;5107970;28;20187;-84
2022/08/22 10:43:06;;;;;;;5.53;3.50;;;31.80;6.80;;;;;;5114396;28;20780;-84
2022/08/22 10:45:36;;;;;;;3.75;3.25;;;31.20;7.70;;;;;;5115286;28;20677;-84
2022/08/22 10:48:32;;;;;;;4.22;3.20;;;30.80;7.40;;;;;;5122563;28;20199;-84
2022/08/22 10:51:13;;;;;;;3.47;2.97;;;30.20;9.20;;;;;;5120399;28;20191;-85
2022/08/22 10:54:13;;;;;;;5.50;3.10;;;30.80;7.40;;;;;;5123068;28;20642;-84
2022/08/22 10:56:45;;;;;;;7.32;3.70;;;30.50;7.30;;;;;;5114631;28;20273;-85
2022/08/22 10:59:36;;;;;;;6.35;3.20;;;31.10;7.50;;;;;;5112236;28;20198;-84
2022/08/22 11:02:19;;;;;;;7.03;3.90;;;30.90;7.50;;;;;;5114233;28;20570;-84
2022/08/22 11:05:24;;;;;;;13.35;11.85;;;31.20;6.20;;;;;;5114431;28;20222;-84
2022/08/22 11:08:15;;;;;;;5.32;3.17;;;30.80;7.80;;;;;;5102095;28;20203;-84
2022/08/22 11:11:00;;;;;;;6.63;3.83;;;30.40;10.70;;;;;;5117699;28;20199;-84
2022/08/22 11:13:37;;;;;;;7.05;3.42;;;28.90;10.80;;;;;;5114435;28;20275;-84
2022/08/22 11:16:13;;;;;;;4.25;2.92;;;28.30;15.30;;;;;;5121412;27;20191;-83
2022/08/22 11:19:09;;;;;;;7.55;3.40;;;27.80;13.90;;;;;;5105226;28;20200;-83
2022/08/22 11:21:52;;;;;;;3.78;2.83;;;27.70;13.00;;;;;;5059795;28;20197;-83
2022/08/22 11:24:48;;;;;;;6.28;3.15;;;27.50;15.40;;;;;;5059674;28;20342;-83
2022/08/22 11:27:30;;;;;;;4.28;2.55;;;27.20;15.20;;;;;;4959456;29;20430;-83
2022/08/22 11:30:01;;;;;;;4.30;2.63;;;27.30;14.90;;;;;;4953516;29;20209;-83
2022/08/22 11:32:35;;;;;;;4.93;2.78;;;27.20;14.60;;;;;;4961295;29;20205;-83
2022/08/22 11:35:06;;;;;;;3.33;2.47;;;26.70;15.00;;;;;;4961588;29;20220;-82
2022/08/22 11:37:47;;;;;;;6.18;2.50;;;26.60;14.90;;;;;;4960808;29;20209;-83
2022/08/22 11:40:32;;;;;;;6.80;2.60;;;26.70;12.40;;;;;;4956615;29;20213;-82
2022/08/22 11:43:31;;;;;;;4.07;2.60;;;27.00;12.60;;;;;;4956786;29;20212;-82
2022/08/22 11:46:14;;;;;;;3.90;2.60;;;27.20;12.10;;;;;;4954857;29;20235;-82
2022/08/22 11:48:49;;;;;;;5.10;2.55;;;27.20;12.20;;;;;;4952391;29;20208;-83
2022/08/22 11:51:31;;;;;;;5.93;2.45;;;26.40;12.30;;;;;;4957650;29;20252;-83
2022/08/22 11:54:07;;;;;;;6.70;2.60;;;25.60;14.40;;;;;;4945035;29;20268;-80
2022/08/22 11:56:38;;;;;;;4.40;1.90;;;25.00;14.20;;;;;;4943891;29;20200;-80
2022/08/22 11:59:19;;;;;;;2.83;2.00;;;24.90;14.20;;;;;;5000618;28;20209;-80
2022/08/22 12:01:52;;;;;;;4.00;2.30;;;25.40;14.40;;;;;;5028834;28;20719;-80
2022/08/22 12:04:27;;;;;;;5.65;3.17;;;25.80;13.30;;;;;;5053651;28;20717;-82
2022/08/22 12:07:01;;;;;;;4.57;2.03;;;25.90;13.50;;;;;;5113186;28;20264;-82
2022/08/22 12:09:37;;;;;;;5.07;2.30;;;25.80;13.90;;;;;;5113025;28;20714;-82
2022/08/22 12:12:37;;;;;;;3.25;1.85;;;25.80;13.10;;;;;;5120009;28;20203;-82
2022/08/22 12:15:19;;;;;;;7.90;2.20;;;25.60;12.50;;;;;;5038485;28;20203;-82
2022/08/22 12:18:27;;;;;;;3.05;1.83;;;25.50;13.20;;;;;;5039806;28;20244;-82
2022/08/22 12:21:29;;;;;;;3.13;2.10;;;25.40;13.10;;;;;;5048316;28;20202;-82
2022/08/22 12:24:18;;;;;;;4.07;2.10;;;25.60;14.30;;;;;;5047723;28;20209;-84
2022/08/22 12:26:53;;;;;;;3.42;2.08;;;25.20;13.30;;;;;;5034675;28;20235;-82
2022/08/22 12:29:31;;;;;;;8.95;1.90;;;25.10;14.20;;;;;;5039588;28;20204;-82
2022/08/22 12:32:35;;;;;;;3.22;1.80;;;24.90;14.20;;;;;;5048835;28;20204;-82
2022/08/22 12:35:20;;;;;;;4.65;1.80;;;24.90;14.10;;;;;;5003377;28;20210;-84
2022/08/22 12:37:54;;;;;;;3.88;1.70;;;24.80;14.10;;;;;;5038316;28;20211;-84
2022/08/22 12:40:34;;;;;;;4.15;1.98;;;24.70;14.00;;;;;;5038382;28;20668;-84
2022/08/22 12:43:35;;;;;;;7.05;3.90;;;24.80;14.10;;;;;;5036573;28;20201;-85
2022/08/22 12:46:18;;;;;;;5.70;3.78;;;24.90;14.20;;;;;;5032660;28;20229;-84
2022/08/22 12:49:18;;;;;;;9.75;2.78;;;25.10;14.20;;;;;;5032277;28;20213;-84
2022/08/22 12:52:01;;;;;;;4.38;2.00;;;25.20;14.20;;;;;;5097908;28;20631;-85
2022/08/22 12:54:58;;;;;;;6.50;2.10;;;25.30;13.20;;;;;;5113962;28;20207;-84
2022/08/22 12:57:37;;;;;;;5.53;1.90;;;25.20;12.90;;;;;;5112507;28;20207;-85
2022/08/22 13:00:22;;;;;;;3.15;1.92;;;25.20;14.20;;;;;;5104655;28;20193;-85
2022/08/22 13:02:52;;;;;;;2.75;1.80;;;25.20;13.30;;;;;;5114994;28;20200;-84
2022/08/22 13:05:23;;;;;;;4.20;1.92;;;25.10;12.80;;;;;;5107872;28;20260;-85
2022/08/22 13:07:54;;;;;;;5.80;1.90;;;25.00;12.90;;;;;;5108460;28;20200;-85
2022/08/22 13:10:41;;;;;;;2.72;1.70;;;25.10;13.40;;;;;;5099246;28;20204;-85
2022/08/22 13:13:14;;;;;;;3.65;1.77;;;25.20;13.30;;;;;;5121081;28;20196;-82
2022/08/22 13:15:47;;;;;;;4.25;2.00;;;25.10;14.20;;;;;;5110375;28;20296;-82
2022/08/22 13:18:20;;;;;;;4.50;2.00;;;25.20;14.20;;;;;;5100834;28;20242;-82
2022/08/22 13:20:51;;;;;;;3.50;2.00;;;25.20;14.20;;;;;;5103053;28;20216;-82
2022/08/22 13:23:23;;;;;;;3.63;2.00;;;25.20;14.20;;;;;;5114203;28;20188;-82
2022/08/22 13:26:06;;;;;;;4.80;1.90;;;25.10;13.10;;;;;;5115398;28;20319;-82
2022/08/22 13:28:43;;;;;;;2.90;2.05;;;24.90;14.10;;;;;;5101530;28;20192;-82
2022/08/22 13:31:22;;;;;;;4.97;2.00;;;24.80;14.10;;;;;;5116150;28;20199;-82
2022/08/22 13:33:50;;;;;;;2.58;1.60;;;24.90;14.10;;;;;;5111046;28;20219;-82
2022/08/22 13:36:21;;;;;;;3.55;1.83;;;25.10;12.70;;;;;;5107989;28;20643;-82
2022/08/22 13:38:52;;;;;;;2.17;1.80;;;25.20;12.60;;;;;;5115299;28;20204;-85
2022/08/22 13:41:23;;;;;;;4.28;2.05;;;25.10;13.40;;;;;;5112102;28;20227;-84
2022/08/22 13:44:10;;;;;;;3.58;1.90;;;25.00;14.20;;;;;;5108873;28;20215;-84
2022/08/22 13:46:37;;;;;;;2.80;1.80;;;25.00;14.20;;;;;;5107304;28;20200;-82
2022/08/22 13:49:07;;;;;;;2.55;1.88;;;25.10;14.20;;;;;;5120154;28;20522;-82
2022/08/22 13:51:45;;;;;;;4.88;2.00;;;25.10;14.20;;;;;;5116990;28;20210;-82
2022/08/22 13:54:33;;;;;;;5.97;1.90;;;25.10;14.20;;;;;;5119603;28;20198;-82
2022/08/22 13:57:09;;;;;;;3.35;1.80;;;25.00;14.20;;;;;;5119924;28;20188;-82
2022/08/22 13:59:47;;;;;;;4.00;1.90;;;25.00;14.20;;;;;;5105893;28;20206;-84
2022/08/22 14:02:24;;;;;;;3.20;2.00;;;24.80;14.10;;;;;;5105792;28;20196;-84